Comox, Canada
Current Conditions -  °F | °C
As of 3:00 PM on Thursday 18 Dec 2014 (Local Time) from CYQQ Reporting Station
Rain Showers Rain Showers  
Wind Chill: 38°   Ceiling: 1700
Heat Index: 46°   Visibility: 10mi
Dew Point: 45°   Wind: 26mph
Humidity: 93%   Direction: 140°SE
Pressure: 29.67"   Gusts: 35mph
Location:  49.67°N, 124.93°W
Report Text: CYQQ 182300Z 14023G30KT 10SM -SHRA FEW006 BKN017 OVC040 08/07 A2967 RMK SF2SC3SC3 SLP048
Loading
Personal Weather Stations






























Interactive Weather Map New forecast layout! Learn more

10-Day Weather Forecast

Advertisements
Track Severe Weather on mobile